Main page
METAR-TAF:

METAR-TAF

Airports :

Bergerac, France

Bergerac Dordogne Périgord Airport

latitude: 44-49N, longitude: 000-31E, elevation: 51 m

Current weather observation

The report was made 22 minutes ago, at 16:30 UTC
Wind 11 kt from the West
Temperature 24°C
Humidity 57%
Pressure 1016 hPa
Visibility 10 km or more
Few clouds at a height of 3800 ft
Broken clouds at a height of 5800 ft
Broken clouds at a height of 7400 ft

METAR: LFBE 221630Z AUTO 26011KT 9999 FEW038 BKN058 BKN074 24/15 Q1016 NOSIG

Time: 18:52 (16:52 UTC)

Forecast

The report was made 5 hours and 52 minutes ago, at 11:00 UTC
Forecast valid from 22 at 12 UTC to 23 at 12 UTC
Wind 3 kt from variable directions
Visibility 10 km or more
no clouds below 1500 m and no cumulonimbus
Temporary
from 22 at 14 UTC to 22 at 19 UTC
Wind 10 kt from the West

TAF: LFBE 221100Z 2212/2312 VRB03KT CAVOK TEMPO 2214/2219 27010KT

Weather observations and forecasts of more than 4000 airports (METAR and TAF reports).

The available stations are represented by yellow and red dots on the map.

Hover mouse over dot to see the name of the station.

Then click to see weather observations and forecasts.

To change the map : click on the green buttons with a black cross to zoom in, on the green button with a dash to zoom out, or on the green arrows for adjacent maps.


METAR-TAF: